sensor_id;sensor_type;location;lat;lon;timestamp;P1;durP1;ratioP1;P2;durP2;ratioP2
57057;SDS011;55017;52.848;6.748;2022-10-13T00:00:39;133.35;;;127.65;;
57057;SDS011;55017;52.848;6.748;2022-10-13T00:03:07;129.18;;;123.28;;
57057;SDS011;55017;52.848;6.748;2022-10-13T00:05:33;132.13;;;126.45;;
57057;SDS011;55017;52.848;6.748;2022-10-13T00:07:59;130.10;;;124.40;;
57057;SDS011;55017;52.848;6.748;2022-10-13T00:10:25;133.55;;;127.85;;
57057;SDS011;55017;52.848;6.748;2022-10-13T00:12:51;131.85;;;126.00;;
57057;SDS011;55017;52.848;6.748;2022-10-13T00:15:17;128.52;;;123.30;;
57057;SDS011;55017;52.848;6.748;2022-10-13T00:17:43;131.98;;;126.28;;
57057;SDS011;55017;52.848;6.748;2022-10-13T00:20:09;130.00;;;124.13;;
57057;SDS011;55017;52.848;6.748;2022-10-13T00:22:35;130.70;;;125.30;;
57057;SDS011;55017;52.848;6.748;2022-10-13T00:25:02;129.80;;;124.05;;
57057;SDS011;55017;52.848;6.748;2022-10-13T00:27:28;131.30;;;125.85;;
57057;SDS011;55017;52.848;6.748;2022-10-13T00:29:53;128.55;;;123.25;;
57057;SDS011;55017;52.848;6.748;2022-10-13T00:32:19;130.02;;;124.40;;
57057;SDS011;55017;52.848;6.748;2022-10-13T00:34:45;130.05;;;124.63;;
57057;SDS011;55017;52.848;6.748;2022-10-13T00:37:10;133.13;;;127.13;;
57057;SDS011;55017;52.848;6.748;2022-10-13T00:39:36;132.00;;;126.25;;
57057;SDS011;55017;52.848;6.748;2022-10-13T00:42:02;132.27;;;126.43;;
57057;SDS011;55017;52.848;6.748;2022-10-13T00:47:22;131.07;;;125.22;;
57057;SDS011;55017;52.848;6.748;2022-10-13T00:49:49;129.43;;;123.93;;
57057;SDS011;55017;52.848;6.748;2022-10-13T00:52:16;132.55;;;126.90;;
57057;SDS011;55017;52.848;6.748;2022-10-13T00:54:45;133.27;;;127.28;;
57057;SDS011;55017;52.848;6.748;2022-10-13T00:57:12;131.60;;;126.00;;
57057;SDS011;55017;52.848;6.748;2022-10-13T00:59:38;130.70;;;125.03;;
57057;SDS011;55017;52.848;6.748;2022-10-13T01:02:04;130.07;;;124.50;;
57057;SDS011;55017;52.848;6.748;2022-10-13T01:04:32;133.35;;;127.43;;
57057;SDS011;55017;52.848;6.748;2022-10-13T01:07:04;136.90;;;130.73;;
57057;SDS011;55017;52.848;6.748;2022-10-13T01:09:30;129.50;;;123.80;;
57057;SDS011;55017;52.848;6.748;2022-10-13T01:12:05;130.50;;;125.05;;
57057;SDS011;55017;52.848;6.748;2022-10-13T01:20:25;131.68;;;126.10;;
57057;SDS011;55017;52.848;6.748;2022-10-13T01:31:41;135.38;;;129.55;;
57057;SDS011;55017;52.848;6.748;2022-10-13T01:36:46;132.98;;;127.32;;
57057;SDS011;55017;52.848;6.748;2022-10-13T01:41:56;138.70;;;132.95;;
57057;SDS011;55017;52.848;6.748;2022-10-13T01:44:31;131.07;;;125.40;;
57057;SDS011;55017;52.848;6.748;2022-10-13T01:47:02;134.35;;;128.52;;
57057;SDS011;55017;52.848;6.748;2022-10-13T01:49:30;131.88;;;126.35;;
57057;SDS011;55017;52.848;6.748;2022-10-13T01:52:03;130.27;;;124.47;;
57057;SDS011;55017;52.848;6.748;2022-10-13T01:54:33;134.98;;;129.10;;
57057;SDS011;55017;52.848;6.748;2022-10-13T01:56:58;134.80;;;129.13;;
57057;SDS011;55017;52.848;6.748;2022-10-13T01:59:24;134.38;;;128.30;;
57057;SDS011;55017;52.848;6.748;2022-10-13T02:07:24;134.40;;;128.38;;
57057;SDS011;55017;52.848;6.748;2022-10-13T02:12:43;135.57;;;129.63;;
57057;SDS011;55017;52.848;6.748;2022-10-13T02:15:12;136.43;;;130.43;;
57057;SDS011;55017;52.848;6.748;2022-10-13T02:17:43;134.85;;;129.15;;
57057;SDS011;55017;52.848;6.748;2022-10-13T02:20:09;135.20;;;129.35;;
57057;SDS011;55017;52.848;6.748;2022-10-13T02:22:36;134.38;;;128.38;;
57057;SDS011;55017;52.848;6.748;2022-10-13T02:25:06;135.35;;;129.40;;
57057;SDS011;55017;52.848;6.748;2022-10-13T02:27:32;136.45;;;130.48;;
57057;SDS011;55017;52.848;6.748;2022-10-13T02:29:58;138.15;;;131.85;;
57057;SDS011;55017;52.848;6.748;2022-10-13T02:32:24;134.85;;;129.02;;
57057;SDS011;55017;52.848;6.748;2022-10-13T02:34:49;135.95;;;129.82;;
57057;SDS011;55017;52.848;6.748;2022-10-13T02:37:15;135.38;;;129.23;;
57057;SDS011;55017;52.848;6.748;2022-10-13T02:39:41;135.93;;;129.63;;
57057;SDS011;55017;52.848;6.748;2022-10-13T02:42:06;133.10;;;127.32;;
57057;SDS011;55017;52.848;6.748;2022-10-13T02:44:32;136.32;;;130.43;;
57057;SDS011;55017;52.848;6.748;2022-10-13T02:46:58;139.18;;;133.10;;
57057;SDS011;55017;52.848;6.748;2022-10-13T02:49:24;133.90;;;127.82;;
57057;SDS011;55017;52.848;6.748;2022-10-13T02:51:50;132.35;;;126.80;;
57057;SDS011;55017;52.848;6.748;2022-10-13T02:54:17;134.20;;;128.30;;
57057;SDS011;55017;52.848;6.748;2022-10-13T02:56:42;138.90;;;132.77;;
57057;SDS011;55017;52.848;6.748;2022-10-13T02:59:08;136.57;;;130.63;;
57057;SDS011;55017;52.848;6.748;2022-10-13T03:01:34;138.57;;;132.57;;
57057;SDS011;55017;52.848;6.748;2022-10-13T03:04:05;139.32;;;133.43;;
57057;SDS011;55017;52.848;6.748;2022-10-13T03:06:33;134.10;;;128.10;;
57057;SDS011;55017;52.848;6.748;2022-10-13T03:08:59;136.57;;;130.75;;
57057;SDS011;55017;52.848;6.748;2022-10-13T03:11:25;132.77;;;126.75;;
57057;SDS011;55017;52.848;6.748;2022-10-13T03:13:50;140.50;;;134.00;;
57057;SDS011;55017;52.848;6.748;2022-10-13T03:16:16;136.98;;;130.65;;
57057;SDS011;55017;52.848;6.748;2022-10-13T03:18:41;134.32;;;128.10;;
57057;SDS011;55017;52.848;6.748;2022-10-13T03:21:08;136.60;;;130.32;;
57057;SDS011;55017;52.848;6.748;2022-10-13T03:23:34;137.48;;;131.63;;
57057;SDS011;55017;52.848;6.748;2022-10-13T03:25:59;132.65;;;126.55;;
57057;SDS011;55017;52.848;6.748;2022-10-13T03:28:25;131.40;;;125.85;;
57057;SDS011;55017;52.848;6.748;2022-10-13T03:30:58;131.93;;;126.03;;
57057;SDS011;55017;52.848;6.748;2022-10-13T03:33:26;135.18;;;129.15;;
57057;SDS011;55017;52.848;6.748;2022-10-13T03:35:51;133.13;;;127.30;;
57057;SDS011;55017;52.848;6.748;2022-10-13T03:38:17;136.38;;;130.55;;
57057;SDS011;55017;52.848;6.748;2022-10-13T03:40:43;136.23;;;130.32;;
57057;SDS011;55017;52.848;6.748;2022-10-13T03:43:08;133.32;;;127.18;;
57057;SDS011;55017;52.848;6.748;2022-10-13T03:45:34;133.05;;;126.93;;
57057;SDS011;55017;52.848;6.748;2022-10-13T03:47:59;136.10;;;129.68;;
57057;SDS011;55017;52.848;6.748;2022-10-13T03:50:25;134.63;;;128.65;;
57057;SDS011;55017;52.848;6.748;2022-10-13T03:52:51;133.65;;;127.90;;
57057;SDS011;55017;52.848;6.748;2022-10-13T03:55:16;134.05;;;127.85;;
57057;SDS011;55017;52.848;6.748;2022-10-13T03:57:42;134.13;;;128.32;;
57057;SDS011;55017;52.848;6.748;2022-10-13T04:00:08;137.80;;;131.40;;
57057;SDS011;55017;52.848;6.748;2022-10-13T04:02:34;135.13;;;129.20;;
57057;SDS011;55017;52.848;6.748;2022-10-13T04:05:00;137.35;;;131.23;;
57057;SDS011;55017;52.848;6.748;2022-10-13T04:07:26;137.27;;;130.80;;
57057;SDS011;55017;52.848;6.748;2022-10-13T04:09:51;138.27;;;132.10;;
57057;SDS011;55017;52.848;6.748;2022-10-13T04:12:17;137.20;;;131.18;;
57057;SDS011;55017;52.848;6.748;2022-10-13T04:14:43;140.13;;;133.75;;
57057;SDS011;55017;52.848;6.748;2022-10-13T04:17:08;138.00;;;131.63;;
57057;SDS011;55017;52.848;6.748;2022-10-13T04:19:34;138.45;;;131.98;;
57057;SDS011;55017;52.848;6.748;2022-10-13T04:21:59;136.98;;;130.25;;
57057;SDS011;55017;52.848;6.748;2022-10-13T04:24:25;141.90;;;135.32;;
57057;SDS011;55017;52.848;6.748;2022-10-13T04:26:51;137.75;;;131.80;;
57057;SDS011;55017;52.848;6.748;2022-10-13T04:29:16;144.80;;;137.50;;
57057;SDS011;55017;52.848;6.748;2022-10-13T04:31:42;140.88;;;134.07;;
57057;SDS011;55017;52.848;6.748;2022-10-13T04:34:08;140.20;;;133.52;;
57057;SDS011;55017;52.848;6.748;2022-10-13T04:36:34;141.40;;;134.50;;
57057;SDS011;55017;52.848;6.748;2022-10-13T04:39:00;137.70;;;131.13;;
57057;SDS011;55017;52.848;6.748;2022-10-13T04:41:25;138.95;;;132.10;;
57057;SDS011;55017;52.848;6.748;2022-10-13T04:43:52;144.32;;;136.73;;
57057;SDS011;55017;52.848;6.748;2022-10-13T04:46:22;141.40;;;134.30;;
57057;SDS011;55017;52.848;6.748;2022-10-13T04:48:49;145.40;;;137.90;;
57057;SDS011;55017;52.848;6.748;2022-10-13T04:51:16;142.82;;;136.23;;
57057;SDS011;55017;52.848;6.748;2022-10-13T04:53:47;140.57;;;134.02;;
57057;SDS011;55017;52.848;6.748;2022-10-13T04:56:16;146.68;;;139.45;;
57057;SDS011;55017;52.848;6.748;2022-10-13T04:58:42;141.70;;;134.98;;
57057;SDS011;55017;52.848;6.748;2022-10-13T05:01:14;141.50;;;134.65;;
57057;SDS011;55017;52.848;6.748;2022-10-13T05:03:41;142.63;;;135.75;;
57057;SDS011;55017;52.848;6.748;2022-10-13T05:06:18;145.98;;;138.45;;
57057;SDS011;55017;52.848;6.748;2022-10-13T05:08:45;144.63;;;137.57;;
57057;SDS011;55017;52.848;6.748;2022-10-13T05:11:11;143.68;;;136.52;;
57057;SDS011;55017;52.848;6.748;2022-10-13T05:13:37;141.43;;;135.05;;
57057;SDS011;55017;52.848;6.748;2022-10-13T05:16:07;147.43;;;139.80;;
57057;SDS011;55017;52.848;6.748;2022-10-13T05:18:34;141.98;;;135.10;;
57057;SDS011;55017;52.848;6.748;2022-10-13T05:21:21;144.00;;;136.38;;
57057;SDS011;55017;52.848;6.748;2022-10-13T05:23:47;141.05;;;133.95;;
57057;SDS011;55017;52.848;6.748;2022-10-13T05:26:16;143.18;;;136.25;;
57057;SDS011;55017;52.848;6.748;2022-10-13T05:28:42;141.60;;;134.90;;
57057;SDS011;55017;52.848;6.748;2022-10-13T05:31:12;141.20;;;134.50;;
57057;SDS011;55017;52.848;6.748;2022-10-13T05:33:43;140.20;;;133.90;;
57057;SDS011;55017;52.848;6.748;2022-10-13T05:36:12;140.25;;;133.30;;
57057;SDS011;55017;52.848;6.748;2022-10-13T05:38:39;144.07;;;137.25;;
57057;SDS011;55017;52.848;6.748;2022-10-13T05:41:05;138.93;;;132.38;;
57057;SDS011;55017;52.848;6.748;2022-10-13T05:43:36;146.73;;;138.98;;
57057;SDS011;55017;52.848;6.748;2022-10-13T05:46:03;138.48;;;131.88;;
57057;SDS011;55017;52.848;6.748;2022-10-13T05:48:30;139.73;;;132.98;;
57057;SDS011;55017;52.848;6.748;2022-10-13T05:50:56;145.50;;;138.77;;
57057;SDS011;55017;52.848;6.748;2022-10-13T05:53:24;139.00;;;132.80;;
57057;SDS011;55017;52.848;6.748;2022-10-13T05:55:52;144.15;;;136.98;;
57057;SDS011;55017;52.848;6.748;2022-10-13T05:58:19;142.07;;;135.02;;
57057;SDS011;55017;52.848;6.748;2022-10-13T06:00:45;141.63;;;134.90;;
57057;SDS011;55017;52.848;6.748;2022-10-13T06:03:12;137.77;;;131.50;;
57057;SDS011;55017;52.848;6.748;2022-10-13T06:05:41;141.32;;;135.05;;
57057;SDS011;55017;52.848;6.748;2022-10-13T06:08:09;140.80;;;134.27;;
57057;SDS011;55017;52.848;6.748;2022-10-13T06:10:38;147.05;;;139.82;;
57057;SDS011;55017;52.848;6.748;2022-10-13T06:13:04;142.07;;;135.48;;
57057;SDS011;55017;52.848;6.748;2022-10-13T06:15:30;142.85;;;136.18;;
57057;SDS011;55017;52.848;6.748;2022-10-13T06:17:55;142.20;;;135.43;;
57057;SDS011;55017;52.848;6.748;2022-10-13T06:20:21;141.88;;;135.23;;
57057;SDS011;55017;52.848;6.748;2022-10-13T06:22:47;140.00;;;133.27;;
57057;SDS011;55017;52.848;6.748;2022-10-13T06:25:14;142.93;;;136.10;;
57057;SDS011;55017;52.848;6.748;2022-10-13T06:27:40;142.98;;;136.02;;
57057;SDS011;55017;52.848;6.748;2022-10-13T06:30:06;140.93;;;134.15;;
57057;SDS011;55017;52.848;6.748;2022-10-13T06:32:32;144.65;;;137.20;;
57057;SDS011;55017;52.848;6.748;2022-10-13T06:34:58;145.80;;;138.48;;
57057;SDS011;55017;52.848;6.748;2022-10-13T06:37:23;142.80;;;136.25;;
57057;SDS011;55017;52.848;6.748;2022-10-13T06:39:49;142.15;;;135.35;;
57057;SDS011;55017;52.848;6.748;2022-10-13T06:42:15;145.23;;;138.15;;
57057;SDS011;55017;52.848;6.748;2022-10-13T06:44:40;148.70;;;141.38;;
57057;SDS011;55017;52.848;6.748;2022-10-13T06:47:06;140.98;;;134.05;;
57057;SDS011;55017;52.848;6.748;2022-10-13T06:49:32;145.48;;;138.35;;
57057;SDS011;55017;52.848;6.748;2022-10-13T06:51:58;142.43;;;134.85;;
57057;SDS011;55017;52.848;6.748;2022-10-13T06:54:24;142.32;;;135.65;;
57057;SDS011;55017;52.848;6.748;2022-10-13T06:56:49;143.77;;;137.18;;
57057;SDS011;55017;52.848;6.748;2022-10-13T06:59:15;141.35;;;134.68;;
57057;SDS011;55017;52.848;6.748;2022-10-13T07:01:41;142.43;;;135.43;;
57057;SDS011;55017;52.848;6.748;2022-10-13T07:04:07;139.85;;;132.85;;
57057;SDS011;55017;52.848;6.748;2022-10-13T07:06:33;139.80;;;133.25;;
57057;SDS011;55017;52.848;6.748;2022-10-13T07:09:01;141.00;;;134.27;;
57057;SDS011;55017;52.848;6.748;2022-10-13T07:11:31;140.65;;;133.95;;
57057;SDS011;55017;52.848;6.748;2022-10-13T07:13:57;144.73;;;137.82;;
57057;SDS011;55017;52.848;6.748;2022-10-13T07:16:22;143.80;;;136.90;;
57057;SDS011;55017;52.848;6.748;2022-10-13T07:18:48;140.65;;;133.95;;
57057;SDS011;55017;52.848;6.748;2022-10-13T07:21:14;140.48;;;133.75;;
57057;SDS011;55017;52.848;6.748;2022-10-13T07:23:39;143.65;;;136.45;;
57057;SDS011;55017;52.848;6.748;2022-10-13T07:26:06;142.15;;;135.35;;
57057;SDS011;55017;52.848;6.748;2022-10-13T07:28:32;143.00;;;135.90;;
57057;SDS011;55017;52.848;6.748;2022-10-13T07:30:58;142.35;;;135.57;;
57057;SDS011;55017;52.848;6.748;2022-10-13T07:33:24;142.93;;;135.95;;
57057;SDS011;55017;52.848;6.748;2022-10-13T07:35:49;144.48;;;136.98;;
57057;SDS011;55017;52.848;6.748;2022-10-13T07:38:15;140.75;;;134.27;;
57057;SDS011;55017;52.848;6.748;2022-10-13T07:40:40;144.45;;;137.45;;
57057;SDS011;55017;52.848;6.748;2022-10-13T07:43:06;141.85;;;135.10;;
57057;SDS011;55017;52.848;6.748;2022-10-13T07:45:32;143.57;;;136.35;;
57057;SDS011;55017;52.848;6.748;2022-10-13T07:47:57;148.27;;;141.05;;
57057;SDS011;55017;52.848;6.748;2022-10-13T07:50:23;144.43;;;137.50;;
57057;SDS011;55017;52.848;6.748;2022-10-13T07:52:48;144.45;;;137.63;;
57057;SDS011;55017;52.848;6.748;2022-10-13T07:55:14;142.35;;;135.25;;
57057;SDS011;55017;52.848;6.748;2022-10-13T07:57:40;145.70;;;138.52;;
57057;SDS011;55017;52.848;6.748;2022-10-13T08:00:05;140.10;;;133.00;;
57057;SDS011;55017;52.848;6.748;2022-10-13T08:02:31;141.55;;;134.75;;
57057;SDS011;55017;52.848;6.748;2022-10-13T08:04:57;141.90;;;134.80;;
57057;SDS011;55017;52.848;6.748;2022-10-13T08:07:23;142.30;;;135.18;;
57057;SDS011;55017;52.848;6.748;2022-10-13T08:09:49;138.20;;;131.70;;
57057;SDS011;55017;52.848;6.748;2022-10-13T08:12:14;144.68;;;137.27;;
57057;SDS011;55017;52.848;6.748;2022-10-13T08:14:40;142.00;;;134.98;;
57057;SDS011;55017;52.848;6.748;2022-10-13T08:17:06;143.25;;;135.85;;
57057;SDS011;55017;52.848;6.748;2022-10-13T08:19:32;140.45;;;133.35;;
57057;SDS011;55017;52.848;6.748;2022-10-13T08:21:58;139.40;;;132.50;;
57057;SDS011;55017;52.848;6.748;2022-10-13T08:24:23;137.77;;;131.10;;
57057;SDS011;55017;52.848;6.748;2022-10-13T08:26:49;140.77;;;133.88;;
57057;SDS011;55017;52.848;6.748;2022-10-13T08:29:15;137.80;;;131.10;;
57057;SDS011;55017;52.848;6.748;2022-10-13T08:31:41;136.82;;;130.13;;
57057;SDS011;55017;52.848;6.748;2022-10-13T08:34:08;140.88;;;133.80;;
57057;SDS011;55017;52.848;6.748;2022-10-13T08:36:34;136.80;;;130.10;;
57057;SDS011;55017;52.848;6.748;2022-10-13T08:39:01;136.43;;;129.57;;
57057;SDS011;55017;52.848;6.748;2022-10-13T08:41:29;141.57;;;134.68;;
57057;SDS011;55017;52.848;6.748;2022-10-13T08:44:06;134.18;;;127.82;;
57057;SDS011;55017;52.848;6.748;2022-10-13T08:46:59;138.60;;;131.75;;
57057;SDS011;55017;52.848;6.748;2022-10-13T08:49:33;137.07;;;130.52;;
57057;SDS011;55017;52.848;6.748;2022-10-13T08:52:02;140.35;;;133.40;;
57057;SDS011;55017;52.848;6.748;2022-10-13T08:54:29;134.95;;;128.50;;
57057;SDS011;55017;52.848;6.748;2022-10-13T08:56:55;140.95;;;134.20;;
57057;SDS011;55017;52.848;6.748;2022-10-13T08:59:20;135.18;;;128.77;;
57057;SDS011;55017;52.848;6.748;2022-10-13T09:01:46;133.73;;;127.13;;
57057;SDS011;55017;52.848;6.748;2022-10-13T09:04:25;134.82;;;128.13;;
57057;SDS011;55017;52.848;6.748;2022-10-13T09:07:20;137.88;;;130.85;;
57057;SDS011;55017;52.848;6.748;2022-10-13T09:09:49;137.43;;;130.80;;
57057;SDS011;55017;52.848;6.748;2022-10-13T09:12:16;137.20;;;130.18;;
57057;SDS011;55017;52.848;6.748;2022-10-13T09:14:55;135.88;;;129.35;;
57057;SDS011;55017;52.848;6.748;2022-10-13T09:17:24;134.18;;;127.53;;
57057;SDS011;55017;52.848;6.748;2022-10-13T09:22:32;141.07;;;134.18;;
57057;SDS011;55017;52.848;6.748;2022-10-13T09:27:51;142.38;;;134.80;;
57057;SDS011;55017;52.848;6.748;2022-10-13T09:30:32;140.38;;;133.07;;
57057;SDS011;55017;52.848;6.748;2022-10-13T09:35:38;139.80;;;132.88;;
57057;SDS011;55017;52.848;6.748;2022-10-13T09:38:09;138.40;;;131.25;;
57057;SDS011;55017;52.848;6.748;2022-10-13T09:40:38;138.20;;;131.18;;
57057;SDS011;55017;52.848;6.748;2022-10-13T09:43:22;138.45;;;131.38;;
57057;SDS011;55017;52.848;6.748;2022-10-13T09:45:56;138.93;;;131.85;;
57057;SDS011;55017;52.848;6.748;2022-10-13T09:48:24;139.60;;;132.57;;
57057;SDS011;55017;52.848;6.748;2022-10-13T09:50:58;134.13;;;127.18;;
57057;SDS011;55017;52.848;6.748;2022-10-13T09:53:27;136.52;;;129.45;;
57057;SDS011;55017;52.848;6.748;2022-10-13T09:59:25;137.02;;;130.13;;
57057;SDS011;55017;52.848;6.748;2022-10-13T10:01:57;134.43;;;127.88;;
57057;SDS011;55017;52.848;6.748;2022-10-13T10:04:32;136.65;;;129.75;;
57057;SDS011;55017;52.848;6.748;2022-10-13T10:07:09;139.50;;;132.55;;
57057;SDS011;55017;52.848;6.748;2022-10-13T10:09:47;136.77;;;129.70;;
57057;SDS011;55017;52.848;6.748;2022-10-13T10:12:21;135.75;;;129.15;;
57057;SDS011;55017;52.848;6.748;2022-10-13T10:14:54;133.40;;;126.72;;
57057;SDS011;55017;52.848;6.748;2022-10-13T10:25:33;135.65;;;128.93;;
57057;SDS011;55017;52.848;6.748;2022-10-13T10:28:28;140.05;;;132.73;;
57057;SDS011;55017;52.848;6.748;2022-10-13T10:36:51;135.98;;;128.75;;
57057;SDS011;55017;52.848;6.748;2022-10-13T10:45:22;135.82;;;128.75;;
57057;SDS011;55017;52.848;6.748;2022-10-13T10:47:52;134.02;;;127.22;;
57057;SDS011;55017;52.848;6.748;2022-10-13T10:50:22;137.93;;;131.10;;
57057;SDS011;55017;52.848;6.748;2022-10-13T10:55:32;134.50;;;127.47;;
57057;SDS011;55017;52.848;6.748;2022-10-13T10:58:33;145.20;;;136.38;;
57057;SDS011;55017;52.848;6.748;2022-10-13T11:04:00;139.18;;;131.52;;
57057;SDS011;55017;52.848;6.748;2022-10-13T11:06:52;142.45;;;134.43;;
57057;SDS011;55017;52.848;6.748;2022-10-13T11:09:59;141.00;;;133.02;;
57057;SDS011;55017;52.848;6.748;2022-10-13T11:14:47;145.02;;;136.57;;
57057;SDS011;55017;52.848;6.748;2022-10-13T11:17:26;144.55;;;136.55;;
57057;SDS011;55017;52.848;6.748;2022-10-13T11:19:53;153.52;;;144.15;;
57057;SDS011;55017;52.848;6.748;2022-10-13T11:22:19;145.23;;;137.40;;
57057;SDS011;55017;52.848;6.748;2022-10-13T11:24:47;142.23;;;134.32;;
57057;SDS011;55017;52.848;6.748;2022-10-13T11:27:22;145.25;;;137.18;;
57057;SDS011;55017;52.848;6.748;2022-10-13T11:30:03;145.75;;;137.48;;
57057;SDS011;55017;52.848;6.748;2022-10-13T11:37:42;142.38;;;134.55;;
57057;SDS011;55017;52.848;6.748;2022-10-13T11:42:50;145.00;;;136.38;;
57057;SDS011;55017;52.848;6.748;2022-10-13T11:48:39;144.13;;;136.13;;
57057;SDS011;55017;52.848;6.748;2022-10-13T11:54:03;147.57;;;138.98;;
57057;SDS011;55017;52.848;6.748;2022-10-13T11:56:52;146.93;;;138.43;;
57057;SDS011;55017;52.848;6.748;2022-10-13T12:04:33;147.90;;;139.25;;
57057;SDS011;55017;52.848;6.748;2022-10-13T12:07:00;147.93;;;139.85;;
57057;SDS011;55017;52.848;6.748;2022-10-13T12:09:28;150.88;;;141.43;;
57057;SDS011;55017;52.848;6.748;2022-10-13T12:11:56;146.90;;;138.32;;
57057;SDS011;55017;52.848;6.748;2022-10-13T12:14:38;154.75;;;145.52;;
57057;SDS011;55017;52.848;6.748;2022-10-13T12:19:54;155.10;;;144.30;;
57057;SDS011;55017;52.848;6.748;2022-10-13T12:22:22;147.10;;;138.55;;
57057;SDS011;55017;52.848;6.748;2022-10-13T12:25:04;153.82;;;144.10;;
57057;SDS011;55017;52.848;6.748;2022-10-13T12:27:32;148.02;;;139.85;;
57057;SDS011;55017;52.848;6.748;2022-10-13T12:30:24;149.65;;;140.98;;
57057;SDS011;55017;52.848;6.748;2022-10-13T12:33:01;154.98;;;145.18;;
57057;SDS011;55017;52.848;6.748;2022-10-13T12:35:29;151.75;;;142.13;;
57057;SDS011;55017;52.848;6.748;2022-10-13T12:37:56;161.23;;;150.40;;
57057;SDS011;55017;52.848;6.748;2022-10-13T12:40:24;154.40;;;144.38;;
57057;SDS011;55017;52.848;6.748;2022-10-13T12:42:51;158.93;;;148.48;;
57057;SDS011;55017;52.848;6.748;2022-10-13T12:45:22;154.02;;;143.73;;
57057;SDS011;55017;52.848;6.748;2022-10-13T12:47:50;154.38;;;144.35;;
57057;SDS011;55017;52.848;6.748;2022-10-13T12:52:53;159.55;;;148.98;;
57057;SDS011;55017;52.848;6.748;2022-10-13T12:58:16;154.65;;;144.63;;
57057;SDS011;55017;52.848;6.748;2022-10-13T13:00:53;155.65;;;145.57;;
57057;SDS011;55017;52.848;6.748;2022-10-13T13:03:22;155.63;;;144.95;;
57057;SDS011;55017;52.848;6.748;2022-10-13T13:06:05;154.32;;;145.10;;
57057;SDS011;55017;52.848;6.748;2022-10-13T13:08:37;156.38;;;147.32;;
57057;SDS011;55017;52.848;6.748;2022-10-13T13:11:04;153.13;;;143.70;;
57057;SDS011;55017;52.848;6.748;2022-10-13T13:13:31;153.00;;;143.52;;
57057;SDS011;55017;52.848;6.748;2022-10-13T13:16:13;153.23;;;144.05;;
57057;SDS011;55017;52.848;6.748;2022-10-13T13:18:45;153.80;;;144.55;;
57057;SDS011;55017;52.848;6.748;2022-10-13T13:21:13;152.50;;;143.40;;
57057;SDS011;55017;52.848;6.748;2022-10-13T13:23:40;152.48;;;143.75;;
57057;SDS011;55017;52.848;6.748;2022-10-13T13:26:11;148.60;;;139.25;;
57057;SDS011;55017;52.848;6.748;2022-10-13T13:28:42;156.18;;;145.13;;
57057;SDS011;55017;52.848;6.748;2022-10-13T13:31:26;152.00;;;142.75;;
57057;SDS011;55017;52.848;6.748;2022-10-13T13:33:52;149.80;;;141.25;;
57057;SDS011;55017;52.848;6.748;2022-10-13T13:36:22;150.98;;;141.98;;
57057;SDS011;55017;52.848;6.748;2022-10-13T13:38:49;153.13;;;143.52;;
57057;SDS011;55017;52.848;6.748;2022-10-13T13:41:15;146.05;;;137.52;;
57057;SDS011;55017;52.848;6.748;2022-10-13T13:43:41;144.52;;;136.80;;
57057;SDS011;55017;52.848;6.748;2022-10-13T13:46:20;144.80;;;136.70;;
57057;SDS011;55017;52.848;6.748;2022-10-13T13:48:50;153.75;;;143.38;;
57057;SDS011;55017;52.848;6.748;2022-10-13T13:51:16;143.40;;;135.20;;
57057;SDS011;55017;52.848;6.748;2022-10-13T13:53:42;141.52;;;133.75;;
57057;SDS011;55017;52.848;6.748;2022-10-13T13:56:15;138.88;;;131.27;;
57057;SDS011;55017;52.848;6.748;2022-10-13T13:58:42;143.57;;;135.27;;
57057;SDS011;55017;52.848;6.748;2022-10-13T14:01:08;141.35;;;133.40;;
57057;SDS011;55017;52.848;6.748;2022-10-13T14:03:34;142.30;;;133.98;;
57057;SDS011;55017;52.848;6.748;2022-10-13T14:06:00;141.77;;;133.60;;
57057;SDS011;55017;52.848;6.748;2022-10-13T14:08:28;141.13;;;133.10;;
57057;SDS011;55017;52.848;6.748;2022-10-13T14:10:55;141.73;;;134.02;;
57057;SDS011;55017;52.848;6.748;2022-10-13T14:13:21;136.48;;;129.45;;
57057;SDS011;55017;52.848;6.748;2022-10-13T14:15:55;134.48;;;127.68;;
57057;SDS011;55017;52.848;6.748;2022-10-13T14:18:21;130.70;;;124.57;;
57057;SDS011;55017;52.848;6.748;2022-10-13T14:20:47;124.57;;;119.18;;
57057;SDS011;55017;52.848;6.748;2022-10-13T14:23:13;128.98;;;123.40;;
57057;SDS011;55017;52.848;6.748;2022-10-13T14:25:38;124.57;;;118.85;;
57057;SDS011;55017;52.848;6.748;2022-10-13T14:28:04;127.95;;;121.88;;
57057;SDS011;55017;52.848;6.748;2022-10-13T14:30:29;125.50;;;119.97;;
57057;SDS011;55017;52.848;6.748;2022-10-13T14:32:55;123.60;;;118.25;;
57057;SDS011;55017;52.848;6.748;2022-10-13T14:35:21;129.65;;;123.82;;
57057;SDS011;55017;52.848;6.748;2022-10-13T14:37:46;123.10;;;117.72;;
57057;SDS011;55017;52.848;6.748;2022-10-13T14:40:12;120.00;;;115.20;;
57057;SDS011;55017;52.848;6.748;2022-10-13T14:42:37;122.60;;;117.50;;
57057;SDS011;55017;52.848;6.748;2022-10-13T14:45:04;126.57;;;121.00;;
57057;SDS011;55017;52.848;6.748;2022-10-13T14:47:30;124.82;;;119.05;;
57057;SDS011;55017;52.848;6.748;2022-10-13T14:49:56;119.10;;;114.70;;
57057;SDS011;55017;52.848;6.748;2022-10-13T14:52:22;118.78;;;114.28;;
57057;SDS011;55017;52.848;6.748;2022-10-13T14:54:47;120.72;;;115.82;;
57057;SDS011;55017;52.848;6.748;2022-10-13T14:57:13;117.20;;;112.65;;
57057;SDS011;55017;52.848;6.748;2022-10-13T14:59:40;120.57;;;115.88;;
57057;SDS011;55017;52.848;6.748;2022-10-13T15:02:07;119.10;;;114.45;;
57057;SDS011;55017;52.848;6.748;2022-10-13T15:04:34;118.50;;;113.90;;
57057;SDS011;55017;52.848;6.748;2022-10-13T15:06:59;117.70;;;113.10;;
57057;SDS011;55017;52.848;6.748;2022-10-13T15:09:25;119.45;;;115.05;;
57057;SDS011;55017;52.848;6.748;2022-10-13T15:11:51;116.78;;;112.13;;
57057;SDS011;55017;52.848;6.748;2022-10-13T15:14:16;116.05;;;111.70;;
57057;SDS011;55017;52.848;6.748;2022-10-13T15:16:42;116.88;;;112.53;;
57057;SDS011;55017;52.848;6.748;2022-10-13T15:19:07;115.22;;;111.03;;
57057;SDS011;55017;52.848;6.748;2022-10-13T15:21:33;118.38;;;113.80;;
57057;SDS011;55017;52.848;6.748;2022-10-13T15:23:58;117.82;;;113.45;;
57057;SDS011;55017;52.848;6.748;2022-10-13T15:26:25;116.18;;;111.68;;
57057;SDS011;55017;52.848;6.748;2022-10-13T15:28:51;114.57;;;110.28;;
57057;SDS011;55017;52.848;6.748;2022-10-13T15:31:18;116.40;;;112.10;;
57057;SDS011;55017;52.848;6.748;2022-10-13T15:33:46;113.57;;;109.32;;
57057;SDS011;55017;52.848;6.748;2022-10-13T15:36:14;114.15;;;109.95;;
57057;SDS011;55017;52.848;6.748;2022-10-13T15:38:40;117.88;;;113.50;;
57057;SDS011;55017;52.848;6.748;2022-10-13T15:41:06;115.78;;;111.38;;